Main page
METAR-TAF:

METAR-TAF

Airports :

Kish International Airport

Kish, Iran

latitude: 26-31-36N, longitude: 053-58-54E, elevation: 30 m

Current weather observation

The report was made 31 minutes ago, at 17:00 UTC
Wind 10 kt from the West
Temperature 33°C
Humidity 80%
Pressure 997 hPa
Visibility: 6000 m

METAR: OIBK 231700Z 28010KT 6000 NSC 33/29 Q0997

Time: 22:01 (17:31 UTC)

Forecast

The report was made 6 hours and 11 minutes ago, at 11:20 UTC
Forecast valid from 23 at 12 UTC to 24 at 18 UTC
Wind 8 kt from the West
Visibility: 6000 m
Becoming
from 23 at 20 UTC to 23 at 22 UTC
Wind 6 kt from the East
Becoming
from 24 at 04 UTC to 24 at 06 UTC
Wind 8 kt from the East/Southeast
Becoming
from 24 at 10 UTC to 24 at 12 UTC
Wind 8 kt from the West
Temporary
from 24 at 12 UTC to 24 at 18 UTC
Wind 16 kt from the West

TAF: OIBK 231120Z 2312/2418 27008KT 6000 NSC BECMG 2320/2322 09006KT BECMG 2404/2406 12008KT BECMG 2410/2412 28008KT TEMPO 2412/2418 28016KT

Weather observations and forecasts of more than 4000 airports (METAR and TAF reports).

The available stations are represented by yellow and red dots on the map.

Hover mouse over dot to see the name of the station.

Then click to see weather observations and forecasts.

To change the map : click on the green buttons with a black cross to zoom in, on the green button with a dash to zoom out, or on the green arrows for adjacent maps.


METAR-TAF: